sensor_id;sensor_type;location;lat;lon;timestamp;P1;durP1;ratioP1;P2;durP2;ratioP2
21705;SDS011;11014;53.076;18.208;2022-10-31T00:00:48;250.90;;;47.97;;
21705;SDS011;11014;53.076;18.208;2022-10-31T00:03:37;199.63;;;44.53;;
21705;SDS011;11014;53.076;18.208;2022-10-31T00:06:05;236.80;;;44.13;;
21705;SDS011;11014;53.076;18.208;2022-10-31T00:08:34;223.60;;;44.63;;
21705;SDS011;11014;53.076;18.208;2022-10-31T00:11:07;170.20;;;40.70;;
21705;SDS011;11014;53.076;18.208;2022-10-31T00:13:37;155.70;;;39.30;;
21705;SDS011;11014;53.076;18.208;2022-10-31T00:16:12;194.05;;;41.95;;
21705;SDS011;11014;53.076;18.208;2022-10-31T00:18:42;160.75;;;38.72;;
21705;SDS011;11014;53.076;18.208;2022-10-31T00:21:10;224.70;;;42.47;;
21705;SDS011;11014;53.076;18.208;2022-10-31T00:23:39;209.27;;;44.10;;
21705;SDS011;11014;53.076;18.208;2022-10-31T00:26:07;153.77;;;40.55;;
21705;SDS011;11014;53.076;18.208;2022-10-31T00:28:36;166.52;;;40.50;;
21705;SDS011;11014;53.076;18.208;2022-10-31T00:31:06;321.20;;;50.13;;
21705;SDS011;11014;53.076;18.208;2022-10-31T00:33:37;199.55;;;43.83;;
21705;SDS011;11014;53.076;18.208;2022-10-31T00:36:07;210.73;;;41.10;;
21705;SDS011;11014;53.076;18.208;2022-10-31T00:38:41;150.45;;;37.47;;
21705;SDS011;11014;53.076;18.208;2022-10-31T00:41:10;269.10;;;46.45;;
21705;SDS011;11014;53.076;18.208;2022-10-31T00:43:42;323.88;;;49.67;;
21705;SDS011;11014;53.076;18.208;2022-10-31T00:46:11;259.55;;;45.35;;
21705;SDS011;11014;53.076;18.208;2022-10-31T00:48:41;132.45;;;39.03;;
21705;SDS011;11014;53.076;18.208;2022-10-31T00:51:10;160.20;;;39.15;;
21705;SDS011;11014;53.076;18.208;2022-10-31T00:53:40;180.18;;;44.15;;
21705;SDS011;11014;53.076;18.208;2022-10-31T00:56:08;212.23;;;45.35;;
21705;SDS011;11014;53.076;18.208;2022-10-31T00:58:37;147.77;;;39.72;;
21705;SDS011;11014;53.076;18.208;2022-10-31T01:01:07;182.98;;;41.00;;
21705;SDS011;11014;53.076;18.208;2022-10-31T01:03:36;235.65;;;41.22;;
21705;SDS011;11014;53.076;18.208;2022-10-31T01:06:11;276.30;;;45.55;;
21705;SDS011;11014;53.076;18.208;2022-10-31T01:08:41;179.63;;;38.75;;
21705;SDS011;11014;53.076;18.208;2022-10-31T01:11:17;374.08;;;50.58;;
21705;SDS011;11014;53.076;18.208;2022-10-31T01:13:52;261.05;;;45.80;;
21705;SDS011;11014;53.076;18.208;2022-10-31T01:16:23;263.90;;;45.55;;
21705;SDS011;11014;53.076;18.208;2022-10-31T01:18:53;219.82;;;42.28;;
21705;SDS011;11014;53.076;18.208;2022-10-31T01:21:23;170.02;;;41.80;;
21705;SDS011;11014;53.076;18.208;2022-10-31T01:23:56;137.95;;;35.88;;
21705;SDS011;11014;53.076;18.208;2022-10-31T01:26:26;281.98;;;46.20;;
21705;SDS011;11014;53.076;18.208;2022-10-31T01:28:57;218.20;;;40.50;;
21705;SDS011;11014;53.076;18.208;2022-10-31T01:31:29;160.13;;;38.60;;
21705;SDS011;11014;53.076;18.208;2022-10-31T01:34:00;169.75;;;39.08;;
21705;SDS011;11014;53.076;18.208;2022-10-31T01:36:29;151.18;;;37.88;;
21705;SDS011;11014;53.076;18.208;2022-10-31T01:39:01;126.85;;;36.58;;
21705;SDS011;11014;53.076;18.208;2022-10-31T01:41:33;159.00;;;37.63;;
21705;SDS011;11014;53.076;18.208;2022-10-31T01:49:33;185.57;;;39.42;;
21705;SDS011;11014;53.076;18.208;2022-10-31T01:52:12;140.00;;;37.58;;
21705;SDS011;11014;53.076;18.208;2022-10-31T01:55:37;263.23;;;42.75;;
21705;SDS011;11014;53.076;18.208;2022-10-31T01:57:45;176.15;;;38.88;;
21705;SDS011;11014;53.076;18.208;2022-10-31T02:00:34;325.15;;;43.33;;
21705;SDS011;11014;53.076;18.208;2022-10-31T02:03:03;130.30;;;36.97;;
21705;SDS011;11014;53.076;18.208;2022-10-31T02:05:31;157.55;;;38.95;;
21705;SDS011;11014;53.076;18.208;2022-10-31T02:08:08;214.70;;;39.45;;
21705;SDS011;11014;53.076;18.208;2022-10-31T02:10:42;180.40;;;36.83;;
21705;SDS011;11014;53.076;18.208;2022-10-31T02:13:12;206.65;;;37.45;;
21705;SDS011;11014;53.076;18.208;2022-10-31T02:15:48;215.02;;;39.03;;
21705;SDS011;11014;53.076;18.208;2022-10-31T02:18:19;222.50;;;38.40;;
21705;SDS011;11014;53.076;18.208;2022-10-31T02:26:23;230.65;;;35.85;;
21705;SDS011;11014;53.076;18.208;2022-10-31T02:32:04;244.13;;;35.20;;
21705;SDS011;11014;53.076;18.208;2022-10-31T02:37:14;243.63;;;36.97;;
21705;SDS011;11014;53.076;18.208;2022-10-31T02:39:56;206.27;;;34.30;;
21705;SDS011;11014;53.076;18.208;2022-10-31T02:43:05;230.88;;;35.85;;
21705;SDS011;11014;53.076;18.208;2022-10-31T02:45:43;290.70;;;39.05;;
21705;SDS011;11014;53.076;18.208;2022-10-31T02:48:21;255.52;;;38.17;;
21705;SDS011;11014;53.076;18.208;2022-10-31T02:50:56;270.58;;;38.78;;
21705;SDS011;11014;53.076;18.208;2022-10-31T02:53:34;240.38;;;39.50;;
21705;SDS011;11014;53.076;18.208;2022-10-31T02:56:09;252.15;;;37.38;;
21705;SDS011;11014;53.076;18.208;2022-10-31T02:58:52;236.25;;;37.70;;
21705;SDS011;11014;53.076;18.208;2022-10-31T03:01:29;204.35;;;35.90;;
21705;SDS011;11014;53.076;18.208;2022-10-31T03:06:45;235.52;;;39.40;;
21705;SDS011;11014;53.076;18.208;2022-10-31T03:09:31;345.23;;;44.80;;
21705;SDS011;11014;53.076;18.208;2022-10-31T03:14:41;390.77;;;46.47;;
21705;SDS011;11014;53.076;18.208;2022-10-31T03:17:24;262.10;;;42.08;;
21705;SDS011;11014;53.076;18.208;2022-10-31T03:20:01;311.25;;;43.40;;
21705;SDS011;11014;53.076;18.208;2022-10-31T03:22:34;325.08;;;46.90;;
21705;SDS011;11014;53.076;18.208;2022-10-31T03:25:06;355.20;;;49.75;;
21705;SDS011;11014;53.076;18.208;2022-10-31T03:27:36;332.27;;;47.15;;
21705;SDS011;11014;53.076;18.208;2022-10-31T03:30:09;323.13;;;45.85;;
21705;SDS011;11014;53.076;18.208;2022-10-31T03:32:54;288.33;;;48.05;;
21705;SDS011;11014;53.076;18.208;2022-10-31T03:35:26;223.65;;;44.38;;
21705;SDS011;11014;53.076;18.208;2022-10-31T03:38:03;319.27;;;49.40;;
21705;SDS011;11014;53.076;18.208;2022-10-31T03:40:35;260.52;;;46.05;;
21705;SDS011;11014;53.076;18.208;2022-10-31T03:43:10;322.50;;;50.33;;
21705;SDS011;11014;53.076;18.208;2022-10-31T03:45:49;268.88;;;46.17;;
21705;SDS011;11014;53.076;18.208;2022-10-31T03:48:18;249.77;;;46.60;;
21705;SDS011;11014;53.076;18.208;2022-10-31T03:53:33;301.23;;;44.63;;
21705;SDS011;11014;53.076;18.208;2022-10-31T03:56:09;274.33;;;44.50;;
21705;SDS011;11014;53.076;18.208;2022-10-31T03:58:48;220.50;;;40.95;;
21705;SDS011;11014;53.076;18.208;2022-10-31T04:01:30;309.17;;;48.22;;
21705;SDS011;11014;53.076;18.208;2022-10-31T04:04:02;400.67;;;52.33;;
21705;SDS011;11014;53.076;18.208;2022-10-31T04:06:31;203.10;;;40.97;;
21705;SDS011;11014;53.076;18.208;2022-10-31T04:09:03;175.55;;;41.05;;
21705;SDS011;11014;53.076;18.208;2022-10-31T04:11:40;334.02;;;48.70;;
21705;SDS011;11014;53.076;18.208;2022-10-31T04:14:52;182.75;;;39.50;;
21705;SDS011;11014;53.076;18.208;2022-10-31T04:17:23;309.60;;;48.77;;
21705;SDS011;11014;53.076;18.208;2022-10-31T04:20:15;350.83;;;49.67;;
21705;SDS011;11014;53.076;18.208;2022-10-31T04:22:45;217.85;;;41.78;;
21705;SDS011;11014;53.076;18.208;2022-10-31T04:25:13;214.77;;;42.47;;
21705;SDS011;11014;53.076;18.208;2022-10-31T04:27:43;243.80;;;44.70;;
21705;SDS011;11014;53.076;18.208;2022-10-31T04:30:11;152.57;;;40.38;;
21705;SDS011;11014;53.076;18.208;2022-10-31T04:32:41;187.75;;;41.25;;
21705;SDS011;11014;53.076;18.208;2022-10-31T04:35:12;261.92;;;46.22;;
21705;SDS011;11014;53.076;18.208;2022-10-31T04:37:41;157.85;;;39.53;;
21705;SDS011;11014;53.076;18.208;2022-10-31T04:40:10;169.23;;;41.70;;
21705;SDS011;11014;53.076;18.208;2022-10-31T04:42:39;163.82;;;40.65;;
21705;SDS011;11014;53.076;18.208;2022-10-31T04:45:08;193.00;;;40.03;;
21705;SDS011;11014;53.076;18.208;2022-10-31T04:47:37;197.48;;;40.40;;
21705;SDS011;11014;53.076;18.208;2022-10-31T04:50:06;211.13;;;41.78;;
21705;SDS011;11014;53.076;18.208;2022-10-31T04:52:38;244.15;;;44.17;;
21705;SDS011;11014;53.076;18.208;2022-10-31T04:55:09;194.20;;;42.67;;
21705;SDS011;11014;53.076;18.208;2022-10-31T04:57:48;225.20;;;44.05;;
21705;SDS011;11014;53.076;18.208;2022-10-31T05:00:20;158.95;;;40.63;;
21705;SDS011;11014;53.076;18.208;2022-10-31T05:02:51;228.10;;;46.17;;
21705;SDS011;11014;53.076;18.208;2022-10-31T05:05:24;141.90;;;40.92;;
21705;SDS011;11014;53.076;18.208;2022-10-31T05:07:55;233.60;;;47.33;;
21705;SDS011;11014;53.076;18.208;2022-10-31T05:10:26;277.35;;;48.20;;
21705;SDS011;11014;53.076;18.208;2022-10-31T05:13:04;265.25;;;48.58;;
21705;SDS011;11014;53.076;18.208;2022-10-31T05:15:52;222.32;;;46.58;;
21705;SDS011;11014;53.076;18.208;2022-10-31T05:18:55;173.43;;;43.17;;
21705;SDS011;11014;53.076;18.208;2022-10-31T05:21:44;379.08;;;54.22;;
21705;SDS011;11014;53.076;18.208;2022-10-31T05:24:14;142.45;;;41.90;;
21705;SDS011;11014;53.076;18.208;2022-10-31T05:26:49;207.15;;;44.88;;
21705;SDS011;11014;53.076;18.208;2022-10-31T05:29:18;186.75;;;46.55;;
21705;SDS011;11014;53.076;18.208;2022-10-31T05:31:46;205.85;;;47.03;;
21705;SDS011;11014;53.076;18.208;2022-10-31T05:34:41;190.82;;;44.58;;
21705;SDS011;11014;53.076;18.208;2022-10-31T05:37:35;203.30;;;45.55;;
21705;SDS011;11014;53.076;18.208;2022-10-31T05:40:04;187.00;;;45.08;;
21705;SDS011;11014;53.076;18.208;2022-10-31T05:42:35;180.93;;;42.80;;
21705;SDS011;11014;53.076;18.208;2022-10-31T05:45:08;200.68;;;45.38;;
21705;SDS011;11014;53.076;18.208;2022-10-31T05:47:59;328.85;;;51.00;;
21705;SDS011;11014;53.076;18.208;2022-10-31T05:50:48;304.73;;;50.38;;
21705;SDS011;11014;53.076;18.208;2022-10-31T05:53:17;112.30;;;38.65;;
21705;SDS011;11014;53.076;18.208;2022-10-31T05:55:49;161.13;;;41.97;;
21705;SDS011;11014;53.076;18.208;2022-10-31T05:58:20;123.82;;;36.45;;
21705;SDS011;11014;53.076;18.208;2022-10-31T06:01:00;160.27;;;38.80;;
21705;SDS011;11014;53.076;18.208;2022-10-31T06:03:29;155.93;;;40.55;;
21705;SDS011;11014;53.076;18.208;2022-10-31T06:06:02;177.65;;;40.92;;
21705;SDS011;11014;53.076;18.208;2022-10-31T06:08:36;175.93;;;40.00;;
21705;SDS011;11014;53.076;18.208;2022-10-31T06:11:08;205.30;;;44.55;;
21705;SDS011;11014;53.076;18.208;2022-10-31T06:14:06;250.70;;;47.85;;
21705;SDS011;11014;53.076;18.208;2022-10-31T06:16:43;292.13;;;48.92;;
21705;SDS011;11014;53.076;18.208;2022-10-31T06:19:34;207.27;;;42.60;;
21705;SDS011;11014;53.076;18.208;2022-10-31T06:22:03;296.45;;;48.22;;
21705;SDS011;11014;53.076;18.208;2022-10-31T06:24:36;263.25;;;47.90;;
21705;SDS011;11014;53.076;18.208;2022-10-31T06:27:18;287.00;;;49.13;;
21705;SDS011;11014;53.076;18.208;2022-10-31T06:29:47;178.38;;;41.03;;
21705;SDS011;11014;53.076;18.208;2022-10-31T06:32:28;357.70;;;54.13;;
21705;SDS011;11014;53.076;18.208;2022-10-31T06:34:58;166.93;;;42.08;;
21705;SDS011;11014;53.076;18.208;2022-10-31T06:37:27;307.17;;;53.17;;
21705;SDS011;11014;53.076;18.208;2022-10-31T06:40:02;247.02;;;48.20;;
21705;SDS011;11014;53.076;18.208;2022-10-31T06:42:39;186.43;;;41.15;;
21705;SDS011;11014;53.076;18.208;2022-10-31T06:45:09;201.63;;;42.47;;
21705;SDS011;11014;53.076;18.208;2022-10-31T06:48:10;199.50;;;44.45;;
21705;SDS011;11014;53.076;18.208;2022-10-31T06:51:08;222.38;;;46.38;;
21705;SDS011;11014;53.076;18.208;2022-10-31T06:53:38;183.25;;;44.92;;
21705;SDS011;11014;53.076;18.208;2022-10-31T06:56:14;198.65;;;46.75;;
21705;SDS011;11014;53.076;18.208;2022-10-31T06:58:48;166.90;;;41.17;;
21705;SDS011;11014;53.076;18.208;2022-10-31T07:01:23;276.33;;;49.78;;
21705;SDS011;11014;53.076;18.208;2022-10-31T07:04:49;211.82;;;44.28;;
21705;SDS011;11014;53.076;18.208;2022-10-31T07:08:51;223.05;;;44.67;;
21705;SDS011;11014;53.076;18.208;2022-10-31T07:12:42;198.27;;;44.47;;
21705;SDS011;11014;53.076;18.208;2022-10-31T07:15:17;159.85;;;40.60;;
21705;SDS011;11014;53.076;18.208;2022-10-31T07:17:46;149.02;;;43.90;;
21705;SDS011;11014;53.076;18.208;2022-10-31T07:20:14;147.73;;;42.28;;
21705;SDS011;11014;53.076;18.208;2022-10-31T07:27:14;219.68;;;46.85;;
21705;SDS011;11014;53.076;18.208;2022-10-31T07:38:52;181.23;;;50.20;;
21705;SDS011;11014;53.076;18.208;2022-10-31T07:46:30;212.90;;;46.05;;
21705;SDS011;11014;53.076;18.208;2022-10-31T08:02:16;167.75;;;40.60;;
21705;SDS011;11014;53.076;18.208;2022-10-31T08:04:49;206.32;;;44.08;;
21705;SDS011;11014;53.076;18.208;2022-10-31T08:07:38;175.27;;;43.15;;
21705;SDS011;11014;53.076;18.208;2022-10-31T08:10:19;155.63;;;41.55;;
21705;SDS011;11014;53.076;18.208;2022-10-31T08:13:10;132.02;;;41.67;;
21705;SDS011;11014;53.076;18.208;2022-10-31T08:18:54;164.82;;;44.30;;
21705;SDS011;11014;53.076;18.208;2022-10-31T08:21:27;185.50;;;43.67;;
21705;SDS011;11014;53.076;18.208;2022-10-31T08:23:56;173.90;;;44.35;;
21705;SDS011;11014;53.076;18.208;2022-10-31T08:26:25;294.50;;;54.55;;
21705;SDS011;11014;53.076;18.208;2022-10-31T08:28:56;151.27;;;43.92;;
21705;SDS011;11014;53.076;18.208;2022-10-31T08:31:31;149.07;;;46.03;;
21705;SDS011;11014;53.076;18.208;2022-10-31T08:34:23;131.48;;;45.30;;
21705;SDS011;11014;53.076;18.208;2022-10-31T08:37:11;184.10;;;48.20;;
21705;SDS011;11014;53.076;18.208;2022-10-31T08:39:45;127.85;;;44.97;;
21705;SDS011;11014;53.076;18.208;2022-10-31T08:42:15;239.10;;;52.53;;
21705;SDS011;11014;53.076;18.208;2022-10-31T08:44:43;187.25;;;47.30;;
21705;SDS011;11014;53.076;18.208;2022-10-31T08:47:16;201.40;;;49.28;;
21705;SDS011;11014;53.076;18.208;2022-10-31T08:49:44;139.23;;;44.40;;
21705;SDS011;11014;53.076;18.208;2022-10-31T08:55:29;172.63;;;46.75;;
21705;SDS011;11014;53.076;18.208;2022-10-31T08:58:06;164.70;;;46.10;;
21705;SDS011;11014;53.076;18.208;2022-10-31T09:00:44;180.07;;;47.45;;
21705;SDS011;11014;53.076;18.208;2022-10-31T09:05:49;256.13;;;53.42;;
21705;SDS011;11014;53.076;18.208;2022-10-31T09:08:18;221.90;;;49.88;;
21705;SDS011;11014;53.076;18.208;2022-10-31T09:10:48;233.27;;;49.05;;
21705;SDS011;11014;53.076;18.208;2022-10-31T09:13:27;148.07;;;43.95;;
21705;SDS011;11014;53.076;18.208;2022-10-31T09:16:14;143.65;;;43.03;;
21705;SDS011;11014;53.076;18.208;2022-10-31T09:18:43;153.65;;;45.05;;
21705;SDS011;11014;53.076;18.208;2022-10-31T09:21:16;139.63;;;43.78;;
21705;SDS011;11014;53.076;18.208;2022-10-31T09:23:46;118.45;;;43.20;;
21705;SDS011;11014;53.076;18.208;2022-10-31T09:26:15;132.75;;;42.58;;
21705;SDS011;11014;53.076;18.208;2022-10-31T09:28:54;153.82;;;43.67;;
21705;SDS011;11014;53.076;18.208;2022-10-31T09:31:24;132.40;;;43.00;;
21705;SDS011;11014;53.076;18.208;2022-10-31T09:34:03;259.95;;;55.25;;
21705;SDS011;11014;53.076;18.208;2022-10-31T09:36:37;146.80;;;44.35;;
21705;SDS011;11014;53.076;18.208;2022-10-31T09:39:11;144.32;;;44.95;;
21705;SDS011;11014;53.076;18.208;2022-10-31T09:51:09;183.15;;;46.15;;
21705;SDS011;11014;53.076;18.208;2022-10-31T09:54:14;128.40;;;42.78;;
21705;SDS011;11014;53.076;18.208;2022-10-31T09:59:47;158.07;;;45.83;;
21705;SDS011;11014;53.076;18.208;2022-10-31T10:02:30;188.10;;;46.63;;
21705;SDS011;11014;53.076;18.208;2022-10-31T10:05:08;127.47;;;41.53;;
21705;SDS011;11014;53.076;18.208;2022-10-31T10:11:04;108.38;;;40.00;;
21705;SDS011;11014;53.076;18.208;2022-10-31T10:16:47;139.65;;;43.38;;
21705;SDS011;11014;53.076;18.208;2022-10-31T10:19:46;100.63;;;40.05;;
21705;SDS011;11014;53.076;18.208;2022-10-31T10:22:38;147.23;;;45.05;;
21705;SDS011;11014;53.076;18.208;2022-10-31T10:25:24;127.43;;;43.28;;
21705;SDS011;11014;53.076;18.208;2022-10-31T10:31:16;155.60;;;45.25;;
21705;SDS011;11014;53.076;18.208;2022-10-31T10:34:08;140.27;;;42.50;;
21705;SDS011;11014;53.076;18.208;2022-10-31T10:36:50;155.05;;;42.50;;
21705;SDS011;11014;53.076;18.208;2022-10-31T10:39:26;199.57;;;46.17;;
21705;SDS011;11014;53.076;18.208;2022-10-31T10:42:07;165.90;;;46.15;;
21705;SDS011;11014;53.076;18.208;2022-10-31T10:44:59;180.63;;;44.03;;
21705;SDS011;11014;53.076;18.208;2022-10-31T10:47:56;156.82;;;42.05;;
21705;SDS011;11014;53.076;18.208;2022-10-31T10:50:38;226.50;;;45.75;;
21705;SDS011;11014;53.076;18.208;2022-10-31T10:53:36;204.73;;;45.15;;
21705;SDS011;11014;53.076;18.208;2022-10-31T10:56:21;269.08;;;50.22;;
21705;SDS011;11014;53.076;18.208;2022-10-31T10:59:02;226.55;;;48.00;;
21705;SDS011;11014;53.076;18.208;2022-10-31T11:01:31;222.20;;;51.13;;
21705;SDS011;11014;53.076;18.208;2022-10-31T11:04:01;180.00;;;46.67;;
21705;SDS011;11014;53.076;18.208;2022-10-31T11:06:32;259.45;;;51.55;;
21705;SDS011;11014;53.076;18.208;2022-10-31T11:09:08;297.98;;;56.72;;
21705;SDS011;11014;53.076;18.208;2022-10-31T11:11:40;364.58;;;59.25;;
21705;SDS011;11014;53.076;18.208;2022-10-31T11:14:12;288.73;;;58.05;;
21705;SDS011;11014;53.076;18.208;2022-10-31T11:16:45;285.10;;;52.50;;
21705;SDS011;11014;53.076;18.208;2022-10-31T11:19:17;214.00;;;47.22;;
21705;SDS011;11014;53.076;18.208;2022-10-31T11:21:48;179.32;;;45.83;;
21705;SDS011;11014;53.076;18.208;2022-10-31T11:24:21;148.27;;;42.65;;
21705;SDS011;11014;53.076;18.208;2022-10-31T11:27:02;157.70;;;43.55;;
21705;SDS011;11014;53.076;18.208;2022-10-31T11:29:42;130.63;;;41.78;;
21705;SDS011;11014;53.076;18.208;2022-10-31T11:32:24;124.18;;;43.13;;
21705;SDS011;11014;53.076;18.208;2022-10-31T11:34:54;122.28;;;44.67;;
21705;SDS011;11014;53.076;18.208;2022-10-31T11:37:27;140.82;;;46.65;;
21705;SDS011;11014;53.076;18.208;2022-10-31T11:40:04;134.75;;;44.42;;
21705;SDS011;11014;53.076;18.208;2022-10-31T11:42:36;181.93;;;47.00;;
21705;SDS011;11014;53.076;18.208;2022-10-31T11:47:47;223.63;;;46.83;;
21705;SDS011;11014;53.076;18.208;2022-10-31T11:50:47;188.70;;;45.97;;
21705;SDS011;11014;53.076;18.208;2022-10-31T11:56:18;181.57;;;45.33;;
21705;SDS011;11014;53.076;18.208;2022-10-31T11:58:54;220.88;;;48.05;;
21705;SDS011;11014;53.076;18.208;2022-10-31T12:01:29;237.82;;;48.58;;
21705;SDS011;11014;53.076;18.208;2022-10-31T12:06:38;232.45;;;50.17;;
21705;SDS011;11014;53.076;18.208;2022-10-31T12:09:25;228.95;;;51.83;;
21705;SDS011;11014;53.076;18.208;2022-10-31T12:17:33;168.57;;;43.95;;
21705;SDS011;11014;53.076;18.208;2022-10-31T12:25:25;149.13;;;41.35;;
21705;SDS011;11014;53.076;18.208;2022-10-31T12:34:12;245.93;;;48.72;;
21705;SDS011;11014;53.076;18.208;2022-10-31T12:37:04;208.30;;;49.72;;
21705;SDS011;11014;53.076;18.208;2022-10-31T12:58:59;168.40;;;47.33;;
21705;SDS011;11014;53.076;18.208;2022-10-31T13:01:37;154.77;;;45.63;;
21705;SDS011;11014;53.076;18.208;2022-10-31T13:07:00;185.57;;;49.22;;
21705;SDS011;11014;53.076;18.208;2022-10-31T13:12:07;194.63;;;45.75;;
21705;SDS011;11014;53.076;18.208;2022-10-31T13:14:51;256.63;;;48.08;;
21705;SDS011;11014;53.076;18.208;2022-10-31T13:17:30;200.15;;;47.47;;
21705;SDS011;11014;53.076;18.208;2022-10-31T13:20:12;164.20;;;46.03;;
21705;SDS011;11014;53.076;18.208;2022-10-31T13:22:45;193.52;;;47.63;;
21705;SDS011;11014;53.076;18.208;2022-10-31T13:25:19;285.50;;;48.72;;
21705;SDS011;11014;53.076;18.208;2022-10-31T13:28:00;249.05;;;52.95;;
21705;SDS011;11014;53.076;18.208;2022-10-31T13:30:33;189.50;;;43.88;;
21705;SDS011;11014;53.076;18.208;2022-10-31T13:33:14;185.10;;;46.95;;
21705;SDS011;11014;53.076;18.208;2022-10-31T13:39:02;205.93;;;45.58;;
21705;SDS011;11014;53.076;18.208;2022-10-31T13:44:18;392.83;;;51.83;;
21705;SDS011;11014;53.076;18.208;2022-10-31T13:46:54;198.13;;;45.58;;
21705;SDS011;11014;53.076;18.208;2022-10-31T13:54:45;221.23;;;47.08;;
21705;SDS011;11014;53.076;18.208;2022-10-31T13:57:31;235.50;;;44.90;;
21705;SDS011;11014;53.076;18.208;2022-10-31T14:00:23;207.20;;;44.60;;
21705;SDS011;11014;53.076;18.208;2022-10-31T14:02:55;275.67;;;46.22;;
21705;SDS011;11014;53.076;18.208;2022-10-31T14:05:33;219.35;;;44.40;;
21705;SDS011;11014;53.076;18.208;2022-10-31T14:08:15;185.85;;;41.22;;
21705;SDS011;11014;53.076;18.208;2022-10-31T14:10:52;198.45;;;42.80;;
21705;SDS011;11014;53.076;18.208;2022-10-31T14:13:29;217.57;;;41.60;;
21705;SDS011;11014;53.076;18.208;2022-10-31T14:16:15;139.25;;;37.30;;
21705;SDS011;11014;53.076;18.208;2022-10-31T14:19:28;185.20;;;38.78;;
21705;SDS011;11014;53.076;18.208;2022-10-31T14:21:53;265.52;;;40.53;;
21705;SDS011;11014;53.076;18.208;2022-10-31T14:25:38;217.25;;;41.67;;
21705;SDS011;11014;53.076;18.208;2022-10-31T14:32:22;311.08;;;45.20;;
21705;SDS011;11014;53.076;18.208;2022-10-31T14:35:00;275.83;;;43.35;;
21705;SDS011;11014;53.076;18.208;2022-10-31T14:38:28;341.20;;;41.92;;
21705;SDS011;11014;53.076;18.208;2022-10-31T14:41:58;235.88;;;38.38;;
21705;SDS011;11014;53.076;18.208;2022-10-31T14:51:32;398.35;;;46.28;;
21705;SDS011;11014;53.076;18.208;2022-10-31T14:54:12;457.77;;;49.22;;
21705;SDS011;11014;53.076;18.208;2022-10-31T14:56:48;450.23;;;46.95;;
21705;SDS011;11014;53.076;18.208;2022-10-31T14:59:22;530.22;;;49.03;;
21705;SDS011;11014;53.076;18.208;2022-10-31T15:01:59;636.88;;;51.60;;
21705;SDS011;11014;53.076;18.208;2022-10-31T15:04:38;661.83;;;52.85;;
21705;SDS011;11014;53.076;18.208;2022-10-31T15:07:18;430.70;;;47.22;;
21705;SDS011;11014;53.076;18.208;2022-10-31T15:09:57;536.80;;;52.50;;
21705;SDS011;11014;53.076;18.208;2022-10-31T15:12:29;620.85;;;55.85;;
21705;SDS011;11014;53.076;18.208;2022-10-31T15:18:03;523.55;;;53.47;;
21705;SDS011;11014;53.076;18.208;2022-10-31T15:20:36;694.63;;;57.35;;
21705;SDS011;11014;53.076;18.208;2022-10-31T15:23:20;474.63;;;51.42;;
21705;SDS011;11014;53.076;18.208;2022-10-31T15:25:57;474.92;;;56.15;;
21705;SDS011;11014;53.076;18.208;2022-10-31T15:28:29;429.15;;;55.70;;
21705;SDS011;11014;53.076;18.208;2022-10-31T15:31:00;620.00;;;63.72;;
21705;SDS011;11014;53.076;18.208;2022-10-31T15:33:31;525.25;;;64.40;;
21705;SDS011;11014;53.076;18.208;2022-10-31T15:36:19;467.38;;;51.80;;
21705;SDS011;11014;53.076;18.208;2022-10-31T15:38:57;478.90;;;53.10;;
21705;SDS011;11014;53.076;18.208;2022-10-31T15:41:38;566.53;;;66.43;;
21705;SDS011;11014;53.076;18.208;2022-10-31T15:44:21;389.42;;;54.83;;
21705;SDS011;11014;53.076;18.208;2022-10-31T15:46:58;536.30;;;56.40;;
21705;SDS011;11014;53.076;18.208;2022-10-31T15:49:31;284.25;;;52.42;;
21705;SDS011;11014;53.076;18.208;2022-10-31T15:52:04;412.70;;;55.63;;
21705;SDS011;11014;53.076;18.208;2022-10-31T15:54:48;450.77;;;55.35;;
21705;SDS011;11014;53.076;18.208;2022-10-31T15:57:18;425.02;;;60.35;;
21705;SDS011;11014;53.076;18.208;2022-10-31T15:59:48;386.40;;;57.58;;
21705;SDS011;11014;53.076;18.208;2022-10-31T16:02:19;269.60;;;48.35;;
21705;SDS011;11014;53.076;18.208;2022-10-31T16:07:21;208.65;;;39.92;;
21705;SDS011;11014;53.076;18.208;2022-10-31T16:12:52;216.27;;;37.72;;
21705;SDS011;11014;53.076;18.208;2022-10-31T16:15:20;216.60;;;38.67;;
21705;SDS011;11014;53.076;18.208;2022-10-31T16:17:50;171.52;;;36.22;;
21705;SDS011;11014;53.076;18.208;2022-10-31T16:20:25;217.65;;;39.40;;
21705;SDS011;11014;53.076;18.208;2022-10-31T16:22:55;162.32;;;38.13;;
21705;SDS011;11014;53.076;18.208;2022-10-31T16:25:32;187.30;;;36.25;;
21705;SDS011;11014;53.076;18.208;2022-10-31T16:28:06;151.40;;;35.75;;
21705;SDS011;11014;53.076;18.208;2022-10-31T16:30:48;157.25;;;34.50;;
21705;SDS011;11014;53.076;18.208;2022-10-31T16:33:21;182.98;;;36.20;;
21705;SDS011;11014;53.076;18.208;2022-10-31T16:36:28;157.38;;;31.33;;
21705;SDS011;11014;53.076;18.208;2022-10-31T16:39:03;141.13;;;31.63;;
21705;SDS011;11014;53.076;18.208;2022-10-31T16:41:38;123.80;;;30.38;;
21705;SDS011;11014;53.076;18.208;2022-10-31T16:44:16;122.57;;;30.83;;
21705;SDS011;11014;53.076;18.208;2022-10-31T16:49:38;135.25;;;30.58;;
21705;SDS011;11014;53.076;18.208;2022-10-31T16:52:06;134.55;;;29.80;;
21705;SDS011;11014;53.076;18.208;2022-10-31T16:54:35;151.13;;;37.13;;
21705;SDS011;11014;53.076;18.208;2022-10-31T16:57:04;200.88;;;40.25;;
21705;SDS011;11014;53.076;18.208;2022-10-31T16:59:44;139.65;;;36.58;;
21705;SDS011;11014;53.076;18.208;2022-10-31T17:02:19;108.20;;;31.85;;
21705;SDS011;11014;53.076;18.208;2022-10-31T17:04:49;118.25;;;30.98;;
21705;SDS011;11014;53.076;18.208;2022-10-31T17:07:23;153.35;;;34.65;;
21705;SDS011;11014;53.076;18.208;2022-10-31T17:09:52;115.50;;;31.90;;
21705;SDS011;11014;53.076;18.208;2022-10-31T17:12:21;134.63;;;32.33;;
21705;SDS011;11014;53.076;18.208;2022-10-31T17:14:54;136.00;;;30.98;;
21705;SDS011;11014;53.076;18.208;2022-10-31T17:17:23;129.57;;;29.15;;
21705;SDS011;11014;53.076;18.208;2022-10-31T17:19:52;111.18;;;28.95;;
21705;SDS011;11014;53.076;18.208;2022-10-31T17:22:20;116.32;;;29.77;;
21705;SDS011;11014;53.076;18.208;2022-10-31T17:24:49;131.45;;;32.40;;
21705;SDS011;11014;53.076;18.208;2022-10-31T17:27:18;188.25;;;38.28;;
21705;SDS011;11014;53.076;18.208;2022-10-31T17:29:49;206.07;;;38.45;;
21705;SDS011;11014;53.076;18.208;2022-10-31T17:32:18;131.32;;;31.48;;
21705;SDS011;11014;53.076;18.208;2022-10-31T17:34:46;153.77;;;35.40;;
21705;SDS011;11014;53.076;18.208;2022-10-31T17:37:15;158.88;;;40.38;;
21705;SDS011;11014;53.076;18.208;2022-10-31T17:39:44;158.68;;;40.55;;
21705;SDS011;11014;53.076;18.208;2022-10-31T17:42:12;162.75;;;39.40;;